Time;durP1;ratioP1;P1;durP2;ratioP2;P2;SDS_P1;SDS_P2;PMS_P1;PMS_P2;Temp;Humidity;BMP_temperature;BMP_pressure;BME280_temperature;BME280_humidity;BME280_pressure;Samples;Min_cycle;Max_cycle;Signal;HPM_P1;HPM_P2
2022/01/16 00:04:45;;;;;;;22.92;18.10;;;;;;;3.22;99.19;102309.47;5032913;28;20052;-53
2022/01/16 00:07:13;;;;;;;25.00;19.85;;;;;;;3.23;99.06;102308.47;5032980;28;20045;-49
2022/01/16 00:09:40;;;;;;;24.52;19.90;;;;;;;3.20;98.96;102307.00;5031274;28;20437;-53
2022/01/16 00:12:10;;;;;;;25.65;20.05;;;;;;;3.19;98.83;102313.38;5033547;28;20127;-51
2022/01/16 00:14:38;;;;;;;26.00;21.50;;;;;;;3.17;98.79;102315.41;5031507;28;20079;-54
2022/01/16 00:17:06;;;;;;;25.58;19.75;;;;;;;3.17;99.04;102314.59;5032614;28;20042;-56
2022/01/16 00:19:34;;;;;;;23.38;18.45;;;;;;;3.18;98.56;102321.66;5032387;28;20494;-51
2022/01/16 00:22:05;;;;;;;24.27;19.52;;;;;;;3.18;98.95;102306.31;5031462;28;20042;-54
2022/01/16 00:24:34;;;;;;;26.63;20.60;;;;;;;3.19;98.92;102310.69;5032418;28;20045;-51
2022/01/16 00:27:02;;;;;;;25.17;19.58;;;;;;;3.17;98.67;102301.13;5032496;28;20042;-52
2022/01/16 00:29:31;;;;;;;25.85;19.50;;;;;;;3.18;99.17;102300.13;5029758;28;20041;-48
2022/01/16 00:31:59;;;;;;;25.95;20.20;;;;;;;3.16;98.54;102296.75;5032403;28;20122;-52
2022/01/16 00:34:26;;;;;;;23.50;18.30;;;;;;;3.13;98.37;102299.81;5032703;28;20385;-50
2022/01/16 00:36:54;;;;;;;23.15;17.13;;;;;;;3.14;98.54;102305.00;5032449;28;20044;-54
2022/01/16 00:39:21;;;;;;;23.10;18.30;;;;;;;3.17;99.30;102311.88;5032119;28;20045;-51
2022/01/16 00:41:49;;;;;;;27.88;21.70;;;;;;;3.15;99.25;102303.16;5032900;28;20046;-52
2022/01/16 00:44:16;;;;;;;27.35;21.00;;;;;;;3.13;98.57;102303.34;5032431;28;20483;-56
2022/01/16 00:46:44;;;;;;;26.50;19.77;;;;;;;3.14;98.55;102294.25;5032659;28;20049;-56
2022/01/16 00:49:12;;;;;;;20.95;16.15;;;;;;;3.17;98.63;102293.88;5032606;28;20046;-54
2022/01/16 00:51:39;;;;;;;22.83;16.70;;;;;;;3.19;98.58;102285.63;5032304;28;20050;-53
2022/01/16 00:54:07;;;;;;;22.05;16.77;;;;;;;3.21;98.83;102302.44;5032463;28;20040;-51
2022/01/16 00:56:34;;;;;;;27.23;21.08;;;;;;;3.23;99.29;102296.88;5032686;28;20044;-53
2022/01/16 00:59:02;;;;;;;29.63;21.60;;;;;;;3.20;98.77;102269.28;5032008;28;20476;-51
2022/01/16 01:01:31;;;;;;;28.60;21.60;;;;;;;3.18;98.07;102259.72;5032338;28;20488;-54
2022/01/16 01:03:59;;;;;;;29.30;22.27;;;;;;;3.17;98.42;102256.16;5032181;28;20099;-51
2022/01/16 01:06:26;;;;;;;30.52;22.13;;;;;;;3.16;98.62;102262.56;5032232;28;20065;-51
2022/01/16 01:08:54;;;;;;;27.63;20.27;;;;;;;3.17;99.00;102258.03;5032232;28;20038;-54
2022/01/16 01:11:26;;;;;;;29.38;20.90;;;;;;;3.16;98.98;102276.03;5032621;28;20044;-55
2022/01/16 01:16:49;;;;;;;30.33;21.42;;;;;;;3.18;99.20;102283.94;5032149;28;20427;-54
2022/01/16 01:19:18;;;;;;;34.67;23.25;;;;;;;3.19;99.13;102266.75;5032078;28;20369;-52
2022/01/16 01:21:46;;;;;;;31.73;22.33;;;;;;;3.18;98.85;102278.56;5032383;28;20048;-51
2022/01/16 01:24:14;;;;;;;32.35;22.67;;;;;;;3.18;98.94;102262.41;5032012;28;20054;-55
2022/01/16 01:26:56;;;;;;;34.05;23.00;;;;;;;3.18;99.15;102257.03;5032850;28;20045;-54
2022/01/16 01:29:27;;;;;;;35.33;22.80;;;;;;;3.20;99.37;102276.53;5031663;28;20046;-53
2022/01/16 01:31:56;;;;;;;27.30;17.77;;;;;;;3.21;98.84;102267.41;5031857;28;20048;-52
2022/01/16 01:34:23;;;;;;;27.23;19.20;;;;;;;3.21;98.91;102248.56;5031929;28;20443;-53
2022/01/16 01:36:51;;;;;;;33.83;24.33;;;;;;;3.20;98.70;102241.53;5031802;28;20487;-51
2022/01/16 01:39:22;;;;;;;35.58;25.30;;;;;;;3.15;98.87;102188.22;5031767;28;20042;-53
2022/01/16 01:41:55;;;;;;;32.45;23.15;;;;;;;3.14;99.05;102191.91;5031479;28;20052;-50
2022/01/16 01:52:41;;;;;;;35.03;24.08;;;;;;;3.12;100.00;102217.34;5035583;28;20379;-49
2022/01/16 01:55:09;;;;;;;31.75;22.25;;;;;;;3.11;99.64;102239.91;5034305;28;20397;-51
2022/01/16 01:57:37;;;;;;;35.90;24.55;;;;;;;3.11;99.84;102239.91;5035239;28;20045;-54
2022/01/16 02:00:06;;;;;;;33.58;23.35;;;;;;;3.10;99.99;102259.78;5035111;28;20071;-50
2022/01/16 02:02:46;;;;;;;31.70;22.92;;;;;;;3.09;100.00;102258.13;5035461;28;20133;-49
2022/01/16 02:05:13;;;;;;;33.35;24.33;;;;;;;3.09;100.00;102268.88;5035103;28;20440;-54
2022/01/16 02:07:41;;;;;;;27.85;19.80;;;;;;;3.10;100.00;102263.31;5033452;28;20037;-51
2022/01/16 02:10:09;;;;;;;32.63;22.58;;;;;;;3.11;100.00;102283.00;5033987;28;20496;-48
2022/01/16 02:12:41;;;;;;;37.45;24.08;;;;;;;3.08;100.00;102261.81;5034795;28;20076;-51
2022/01/16 02:15:34;;;;;;;30.00;20.38;;;;;;;3.07;100.00;102262.84;5034503;28;20037;-53
2022/01/16 02:34:38;;;;;;;30.17;20.75;;;;;;;3.02;100.00;102295.69;4993018;28;20082;-51
2022/01/16 02:37:10;;;;;;;30.10;20.95;;;;;;;3.03;100.00;102297.38;4993181;28;20050;-51
2022/01/16 02:39:41;;;;;;;27.42;18.90;;;;;;;2.99;100.00;102286.13;5006497;28;20057;-53
2022/01/16 02:42:10;;;;;;;34.08;23.45;;;;;;;3.03;100.00;102281.22;5012314;28;20072;-52
2022/01/16 02:47:14;;;;;;;32.92;23.13;;;;;;;3.03;99.85;102280.38;5012265;28;20157;-51
2022/01/16 02:49:44;;;;;;;34.63;23.85;;;;;;;3.03;100.00;102265.06;5012001;28;20053;-54
2022/01/16 02:52:13;;;;;;;34.33;24.00;;;;;;;3.02;100.00;102268.78;5012226;28;20045;-53
2022/01/16 02:54:43;;;;;;;32.92;23.67;;;;;;;3.02;99.85;102257.16;5012176;28;20104;-50
2022/01/16 02:57:14;;;;;;;31.55;22.25;;;;;;;3.02;100.00;102249.09;5012101;28;20046;-54
2022/01/16 02:59:48;;;;;;;32.60;22.67;;;;;;;3.04;100.00;102249.75;5018592;28;20049;-52
2022/01/16 03:02:17;;;;;;;33.80;22.88;;;;;;;3.06;100.00;102242.34;5034425;28;20060;-51
2022/01/16 03:04:45;;;;;;;34.90;23.73;;;;;;;3.05;100.00;102230.69;5034105;28;20119;-51
2022/01/16 03:07:15;;;;;;;33.40;22.83;;;;;;;3.05;100.00;102240.63;5034263;28;20141;-56
2022/01/16 03:12:13;;;;;;;36.60;23.70;;;;;;;3.04;100.00;102225.53;5033834;28;20045;-52
2022/01/16 03:14:40;;;;;;;34.78;22.88;;;;;;;3.04;100.00;102228.22;5035167;28;20041;-53
2022/01/16 03:17:10;;;;;;;35.67;23.58;;;;;;;3.05;100.00;102230.69;5034930;28;20038;-54
2022/01/16 03:22:24;;;;;;;35.58;23.30;;;;;;;3.09;100.00;102223.94;5033812;28;20054;-48
2022/01/16 03:24:51;;;;;;;33.35;22.98;;;;;;;3.09;100.00;102215.03;5034105;28;20045;-56
2022/01/16 03:27:20;;;;;;;36.42;23.95;;;;;;;3.08;100.00;102222.28;5033966;28;20054;-52
2022/01/16 03:29:51;;;;;;;33.88;22.35;;;;;;;3.06;100.00;102215.41;5033504;28;20483;-56
2022/01/16 03:32:22;;;;;;;35.90;24.90;;;;;;;3.08;100.00;102202.56;5033446;28;20037;-51
2022/01/16 03:34:50;;;;;;;37.50;25.15;;;;;;;3.08;100.00;102205.25;5033898;28;20049;-52
2022/01/16 03:37:18;;;;;;;36.33;24.25;;;;;;;3.08;100.00;102205.25;5033846;28;20049;-54
2022/01/16 03:39:46;;;;;;;36.53;24.05;;;;;;;3.06;100.00;102194.69;5033409;28;20052;-52
2022/01/16 03:42:14;;;;;;;35.08;24.17;;;;;;;3.07;100.00;102190.13;5032870;28;20139;-54
2022/01/16 03:44:42;;;;;;;36.08;22.48;;;;;;;3.10;100.00;102195.16;5033587;28;20057;-53
2022/01/16 03:47:09;;;;;;;35.65;22.17;;;;;;;3.11;100.00;102196.84;5032262;28;20056;-51
2022/01/16 03:49:37;;;;;;;36.63;23.95;;;;;;;3.07;100.00;102207.13;5033230;28;20041;-54
2022/01/16 03:52:05;;;;;;;37.10;25.88;;;;;;;3.05;99.87;102202.94;5032543;28;20037;-53
2022/01/16 03:54:33;;;;;;;34.90;22.35;;;;;;;3.08;100.00;102199.88;5032953;28;20033;-51
2022/01/16 03:57:01;;;;;;;41.67;25.13;;;;;;;3.07;99.99;102196.34;5033299;28;20048;-52
2022/01/16 03:59:28;;;;;;;42.55;27.30;;;;;;;3.07;100.00;102204.44;5033115;28;20487;-53
2022/01/16 04:01:56;;;;;;;39.30;24.30;;;;;;;3.08;100.00;102207.94;5032564;28;20077;-53
2022/01/16 04:04:24;;;;;;;40.13;25.70;;;;;;;3.09;99.94;102206.94;5032845;28;20056;-52
2022/01/16 04:06:52;;;;;;;39.92;23.80;;;;;;;3.09;99.33;102212.34;5033312;28;20033;-51
2022/01/16 04:09:19;;;;;;;39.25;25.38;;;;;;;3.09;99.78;102212.34;5033160;28;20042;-51
2022/01/16 04:11:53;;;;;;;36.05;22.20;;;;;;;3.12;99.55;102215.47;5033124;28;20041;-51
2022/01/16 04:14:26;;;;;;;41.78;24.73;;;;;;;3.13;100.00;102200.19;5032206;28;20048;-48
2022/01/16 04:16:53;;;;;;;40.53;24.52;;;;;;;3.10;99.42;102201.41;5032659;28;20515;-51
2022/01/16 04:19:21;;;;;;;35.97;22.52;;;;;;;3.11;99.53;102211.13;5032789;28;20038;-52
2022/01/16 04:21:49;;;;;;;31.35;19.48;;;;;;;3.11;99.77;102203.06;5031470;28;20045;-51
2022/01/16 04:24:17;;;;;;;35.00;21.42;;;;;;;3.12;100.00;102198.50;5032337;28;20046;-54
2022/01/16 04:26:44;;;;;;;36.50;23.73;;;;;;;3.11;99.58;102194.16;5032933;28;20071;-54
2022/01/16 04:29:12;;;;;;;37.05;23.70;;;;;;;3.11;99.75;102191.44;5032810;28;20053;-52
2022/01/16 04:31:39;;;;;;;37.60;23.88;;;;;;;3.08;99.12;102186.41;5032475;28;20045;-50
2022/01/16 04:34:07;;;;;;;42.58;26.23;;;;;;;3.08;99.30;102191.78;5032059;28;20045;-49
2022/01/16 04:36:35;;;;;;;38.00;22.17;;;;;;;3.08;99.40;102191.78;5032758;28;20440;-51
2022/01/16 04:39:08;;;;;;;38.88;22.73;;;;;;;3.11;99.48;102199.53;5032782;28;20041;-46
2022/01/16 04:44:22;;;;;;;38.20;24.50;;;;;;;3.10;99.95;102200.53;5032457;28;20061;-50
2022/01/16 04:46:49;;;;;;;39.78;24.25;;;;;;;3.11;99.23;102196.84;5032278;28;20048;-52
2022/01/16 04:49:17;;;;;;;41.95;25.65;;;;;;;3.11;99.62;102192.28;5032686;28;20043;-52
2022/01/16 04:51:44;;;;;;;40.03;24.33;;;;;;;3.13;99.33;102189.41;5032547;28;20041;-51
2022/01/16 04:54:12;;;;;;;34.70;22.55;;;;;;;3.14;99.71;102191.91;5032510;28;20042;-54
2022/01/16 04:56:39;;;;;;;39.03;24.15;;;;;;;3.15;99.66;102193.59;5032061;28;20049;-53
2022/01/16 04:59:07;;;;;;;44.55;28.02;;;;;;;3.15;99.25;102192.72;5032463;28;20064;-55
2022/01/16 05:01:35;;;;;;;36.88;24.15;;;;;;;3.15;99.44;102182.81;5032347;28;20045;-51
2022/01/16 05:04:03;;;;;;;33.08;21.23;;;;;;;3.16;99.12;102184.47;5033394;28;20507;-50
2022/01/16 05:06:30;;;;;;;36.47;24.73;;;;;;;3.16;99.52;102183.66;5031894;28;20507;-50
2022/01/16 05:08:58;;;;;;;37.22;24.58;;;;;;;3.16;99.12;102167.50;5032478;28;20037;-49
2022/01/16 05:11:26;;;;;;;34.03;21.73;;;;;;;3.18;99.56;102170.84;5032628;28;20041;-50
2022/01/16 05:19:11;;;;;;;35.80;25.00;;;;;;;3.19;100.00;102167.13;5032406;28;20048;-56
2022/01/16 05:21:40;;;;;;;40.00;26.27;;;;;;;3.18;99.25;102170.84;5033558;28;20224;-51
2022/01/16 05:24:10;;;;;;;34.00;23.65;;;;;;;3.19;99.73;102167.13;5035845;28;20055;-50
2022/01/16 05:26:40;;;;;;;33.75;21.83;;;;;;;3.18;99.28;102166.28;5036091;28;20061;-52
2022/01/16 05:29:08;;;;;;;33.97;22.15;;;;;;;3.19;100.00;102159.88;5035864;28;20049;-57
2022/01/16 05:31:36;;;;;;;36.92;23.52;;;;;;;3.20;100.00;102163.41;5035676;28;20480;-52
2022/01/16 05:34:04;;;;;;;31.75;21.58;;;;;;;3.22;100.00;102168.59;5035978;28;20099;-53
2022/01/16 05:36:31;;;;;;;33.35;21.75;;;;;;;3.23;100.00;102164.91;5035272;28;20127;-54
2022/01/16 05:38:59;;;;;;;31.23;21.30;;;;;;;3.23;99.79;102171.13;5035738;28;20041;-53
2022/01/16 05:41:27;;;;;;;30.95;21.98;;;;;;;3.23;100.00;102167.59;5034411;28;20468;-54
2022/01/16 05:43:54;;;;;;;30.05;22.23;;;;;;;3.23;100.00;102168.41;5035790;28;20049;-50
2022/01/16 05:46:22;;;;;;;32.60;23.50;;;;;;;3.25;100.00;102168.22;5035033;28;20064;-52
2022/01/16 05:48:50;;;;;;;28.45;20.52;;;;;;;3.23;100.00;102179.19;5036135;28;20065;-52
2022/01/16 05:51:18;;;;;;;31.15;23.42;;;;;;;3.21;100.00;102175.84;5035622;28;20050;-55
2022/01/16 05:53:46;;;;;;;39.88;28.85;;;;;;;3.17;100.00;102179.91;5035804;28;20037;-50
2022/01/16 05:56:13;;;;;;;36.00;26.83;;;;;;;3.13;100.00;102184.03;5035222;28;20518;-53
2022/01/16 05:58:41;;;;;;;35.05;26.60;;;;;;;3.14;100.00;102183.00;5035211;28;20049;-49
2022/01/16 06:01:09;;;;;;;36.80;27.52;;;;;;;3.07;100.00;102177.50;5034957;28;20052;-54
2022/01/16 06:03:37;;;;;;;36.72;26.95;;;;;;;3.08;100.00;102176.50;5035538;28;20049;-50
2022/01/16 06:06:04;;;;;;;27.25;20.55;;;;;;;3.13;100.00;102163.31;5034272;28;20057;-52
2022/01/16 06:08:32;;;;;;;25.55;18.65;;;;;;;3.30;100.00;102161.28;5034573;28;20034;-50
2022/01/16 06:11:00;;;;;;;35.78;25.33;;;;;;;3.29;100.00;102166.84;5035181;28;20049;-50
2022/01/16 06:13:27;;;;;;;30.60;23.10;;;;;;;3.27;100.00;102164.34;5035176;28;20072;-55
2022/01/16 06:15:55;;;;;;;33.13;24.77;;;;;;;3.34;100.00;102153.63;5034414;28;20048;-52
2022/01/16 06:18:22;;;;;;;26.00;17.77;;;;;;;3.49;100.00;102169.78;5035036;28;20446;-50
2022/01/16 06:20:52;;;;;;;33.25;26.00;;;;;;;3.37;100.00;102166.75;5035227;28;20052;-53
2022/01/16 06:23:20;;;;;;;33.97;24.65;;;;;;;3.32;100.00;102177.22;5034745;28;20140;-55
2022/01/16 06:25:54;;;;;;;35.35;26.17;;;;;;;3.29;100.00;102175.75;5035094;28;20059;-52
2022/01/16 06:28:23;;;;;;;30.60;23.90;;;;;;;3.31;100.00;102175.56;5034302;28;20048;-56
2022/01/16 06:30:50;;;;;;;27.63;20.83;;;;;;;3.30;100.00;102182.81;5034553;28;20052;-55
2022/01/16 06:33:18;;;;;;;31.58;23.23;;;;;;;3.36;100.00;102184.75;5034214;28;20037;-51
2022/01/16 06:35:46;;;;;;;33.33;24.92;;;;;;;3.40;100.00;102186.06;5034591;28;20400;-54
2022/01/16 06:38:14;;;;;;;35.72;26.58;;;;;;;3.41;100.00;102193.09;5033970;28;20048;-53
2022/01/16 06:40:41;;;;;;;33.50;26.45;;;;;;;3.37;100.00;102208.00;5034491;28;20045;-51
2022/01/16 06:43:09;;;;;;;21.40;15.18;;;;;;;3.39;100.00;102203.25;5034531;28;20042;-54
2022/01/16 06:45:38;;;;;;;33.88;25.15;;;;;;;3.38;100.00;102206.94;5034144;28;20504;-49
2022/01/16 06:48:05;;;;;;;27.95;20.85;;;;;;;3.38;100.00;102209.66;5033833;28;20030;-56
2022/01/16 06:50:33;;;;;;;34.10;23.65;;;;;;;3.39;100.00;102208.66;5034810;28;20046;-56
2022/01/16 06:53:00;;;;;;;21.90;16.85;;;;;;;3.42;100.00;102204.75;5034995;28;20053;-52
2022/01/16 06:55:28;;;;;;;26.17;16.30;;;;;;;3.49;100.00;102207.50;5034421;28;20046;-52
2022/01/16 06:57:56;;;;;;;32.90;26.40;;;;;;;3.46;100.00;102215.97;5034041;28;20491;-51
2022/01/16 07:00:23;;;;;;;31.77;22.33;;;;;;;3.47;100.00;102210.41;5033589;28;20049;-52
2022/01/16 07:02:51;;;;;;;34.25;23.52;;;;;;;3.46;100.00;102221.34;5034121;28;20054;-56
2022/01/16 07:05:18;;;;;;;32.25;22.45;;;;;;;3.51;100.00;102218.94;5034178;28;20132;-52
2022/01/16 07:07:46;;;;;;;28.10;21.17;;;;;;;3.50;100.00;102218.09;5033858;28;20037;-53
2022/01/16 07:10:13;;;;;;;34.33;26.48;;;;;;;3.48;100.00;102219.31;5032945;28;20048;-55
2022/01/16 07:12:41;;;;;;;34.78;26.88;;;;;;;3.42;100.00;102218.22;5034003;28;20111;-53
2022/01/16 07:15:10;;;;;;;36.55;27.70;;;;;;;3.38;100.00;102224.97;5033823;28;20056;-54
2022/01/16 07:17:37;;;;;;;34.35;25.65;;;;;;;3.35;100.00;102226.19;5033574;28;20029;-52
2022/01/16 07:20:10;;;;;;;35.08;26.38;;;;;;;3.36;100.00;102237.78;5032923;28;20528;-55
2022/01/16 07:22:38;;;;;;;39.15;27.77;;;;;;;3.34;100.00;102246.09;5033698;28;20499;-52
2022/01/16 07:25:06;;;;;;;33.45;24.92;;;;;;;3.36;100.00;102249.41;5033774;28;20062;-55
2022/01/16 07:27:33;;;;;;;34.45;25.67;;;;;;;3.46;100.00;102253.69;5033794;28;20040;-55
2022/01/16 07:30:01;;;;;;;34.78;26.33;;;;;;;3.52;100.00;102258.34;5032672;28;20037;-53
2022/01/16 07:32:29;;;;;;;30.75;24.17;;;;;;;3.50;100.00;102261.22;5033166;28;20066;-53
2022/01/16 07:34:57;;;;;;;32.33;23.80;;;;;;;3.56;100.00;102255.09;5033437;28;20115;-56
2022/01/16 07:37:24;;;;;;;33.05;26.08;;;;;;;3.54;100.00;102261.69;5033259;28;20044;-55
2022/01/16 07:39:53;;;;;;;33.83;22.55;;;;;;;3.57;100.00;102274.78;5033103;28;20502;-53
2022/01/16 07:42:21;;;;;;;34.00;24.73;;;;;;;3.57;100.00;102272.09;5033230;28;20045;-51
2022/01/16 07:44:50;;;;;;;38.13;24.73;;;;;;;3.60;100.00;102260.94;5047709;28;20069;-57
2022/01/16 07:47:18;;;;;;;34.80;26.13;;;;;;;3.57;100.00;102267.53;5033021;28;20069;-54
2022/01/16 07:49:46;;;;;;;32.78;24.33;;;;;;;3.57;100.00;102272.09;5032747;28;20038;-55
2022/01/16 07:52:34;;;;;;;32.03;24.73;;;;;;;3.56;100.00;102276.66;5033315;28;20053;-52
2022/01/16 07:55:02;;;;;;;32.78;24.83;;;;;;;3.57;100.00;102272.94;5033131;28;20053;-54
2022/01/16 07:57:30;;;;;;;33.95;24.23;;;;;;;3.60;100.00;102287.88;5033066;28;20415;-53
2022/01/16 08:00:18;;;;;;;28.08;20.45;;;;;;;3.64;100.00;102302.69;5031416;28;20550;-55
2022/01/16 08:02:49;;;;;;;30.10;22.85;;;;;;;3.68;100.00;102304.00;5032920;28;20033;-58
2022/01/16 08:05:18;;;;;;;29.30;22.27;;;;;;;3.67;100.00;102293.38;5031864;28;20049;-52
2022/01/16 08:07:46;;;;;;;28.88;22.50;;;;;;;3.65;100.00;102304.34;5033047;28;20045;-53
2022/01/16 08:10:14;;;;;;;28.17;20.63;;;;;;;3.67;100.00;102305.00;5032662;28;20057;-55
2022/01/16 08:12:41;;;;;;;29.23;21.77;;;;;;;3.70;100.00;102301.91;5032518;28;20045;-62
2022/01/16 08:15:09;;;;;;;31.90;23.27;;;;;;;3.70;100.00;102299.22;5015671;28;20049;-53
2022/01/16 08:17:37;;;;;;;28.63;21.33;;;;;;;3.69;100.00;102292.16;5026298;28;20045;-50
2022/01/16 08:20:10;;;;;;;29.95;21.25;;;;;;;3.71;100.00;102283.91;5032866;28;20345;-53
2022/01/16 08:22:38;;;;;;;30.85;21.90;;;;;;;3.70;100.00;102288.44;5032708;28;20042;-55
2022/01/16 08:25:07;;;;;;;29.13;21.73;;;;;;;3.71;100.00;102289.31;5026652;28;20388;-51
2022/01/16 08:27:35;;;;;;;33.33;23.38;;;;;;;3.65;100.00;102285.47;5028097;28;20049;-52
2022/01/16 08:30:07;;;;;;;34.47;23.85;;;;;;;3.62;100.00;102289.38;5032588;28;20068;-54
2022/01/16 08:32:35;;;;;;;33.92;23.67;;;;;;;3.62;100.00;102283.16;5032148;28;20129;-55
2022/01/16 08:35:03;;;;;;;36.45;25.52;;;;;;;3.59;100.00;102275.44;5032238;28;20033;-51
2022/01/16 08:37:31;;;;;;;36.40;25.02;;;;;;;3.62;100.00;102275.91;5032938;28;20046;-56
2022/01/16 08:39:58;;;;;;;35.75;24.95;;;;;;;3.63;100.00;102284.81;5034584;28;20041;-50
2022/01/16 08:42:26;;;;;;;34.60;25.02;;;;;;;3.62;100.00;102285.84;5032395;28;20050;-51
2022/01/16 08:44:54;;;;;;;32.60;23.23;;;;;;;3.62;100.00;102285.84;5032524;28;20049;-54
2022/01/16 08:47:21;;;;;;;32.00;24.25;;;;;;;3.64;100.00;102297.28;5031236;28;20416;-56
2022/01/16 08:49:49;;;;;;;32.30;23.75;;;;;;;3.70;100.00;102293.81;5032775;28;20449;-54
2022/01/16 08:52:19;;;;;;;36.67;24.17;;;;;;;3.70;100.00;102299.22;5031183;28;20388;-55
2022/01/16 08:54:47;;;;;;;30.45;22.20;;;;;;;3.72;100.00;102307.97;5031838;28;20068;-54
2022/01/16 08:57:15;;;;;;;36.40;22.98;;;;;;;3.80;100.00;102309.72;5035288;28;20041;-53
2022/01/16 08:59:42;;;;;;;37.13;24.02;;;;;;;3.80;100.00;102315.13;5035333;28;20056;-55
2022/01/16 09:02:10;;;;;;;31.80;22.80;;;;;;;3.85;100.00;102323.50;5035831;28;20037;-55
2022/01/16 09:04:38;;;;;;;32.83;23.42;;;;;;;3.87;100.00;102316.03;5035081;28;20126;-50
2022/01/16 09:07:05;;;;;;;39.55;23.98;;;;;;;3.83;100.00;102321.00;5036698;28;20042;-50
2022/01/16 09:09:33;;;;;;;30.90;21.85;;;;;;;3.82;100.00;102322.03;5036446;28;20056;-53
2022/01/16 09:12:00;;;;;;;34.80;24.02;;;;;;;3.84;100.00;102322.66;5036265;28;20060;-53
2022/01/16 09:14:28;;;;;;;36.15;24.40;;;;;;;3.87;100.00;102320.59;5034316;28;20535;-56
2022/01/16 09:16:56;;;;;;;36.42;23.60;;;;;;;3.89;100.00;102323.94;5036332;28;20041;-57
2022/01/16 09:19:23;;;;;;;33.33;23.05;;;;;;;3.90;100.00;102321.09;5036065;28;20496;-53
2022/01/16 09:21:51;;;;;;;34.80;23.70;;;;;;;3.91;100.00;102332.69;5036450;28;20104;-56
2022/01/16 09:24:18;;;;;;;34.40;24.25;;;;;;;3.92;100.00;102328.97;5034570;28;20046;-56
2022/01/16 09:26:46;;;;;;;40.25;25.15;;;;;;;3.93;100.00;102325.25;5036327;28;20041;-55
2022/01/16 09:29:14;;;;;;;35.20;22.77;;;;;;;3.96;100.00;102331.09;5036177;28;20048;-52
2022/01/16 09:31:42;;;;;;;34.88;24.42;;;;;;;3.96;100.00;102335.66;5035890;28;20081;-52
2022/01/16 09:34:09;;;;;;;35.45;24.20;;;;;;;3.98;100.00;102339.84;5036058;28;20042;-54
2022/01/16 09:36:38;;;;;;;37.28;25.27;;;;;;;3.97;100.00;102340.03;5034379;28;20049;-52
2022/01/16 09:39:05;;;;;;;37.58;26.02;;;;;;;4.07;100.00;102347.88;5035761;28;20048;-53
2022/01/16 09:41:33;;;;;;;37.67;25.98;;;;;;;4.03;100.00;102358.16;5035718;28;20091;-54
2022/01/16 09:44:02;;;;;;;37.10;26.45;;;;;;;3.99;100.00;102355.03;5035607;28;20552;-54
2022/01/16 09:46:29;;;;;;;41.25;26.85;;;;;;;3.99;100.00;102354.16;5035003;28;20092;-49
2022/01/16 09:48:57;;;;;;;38.40;26.40;;;;;;;4.01;100.00;102349.44;5034425;28;20041;-51
2022/01/16 09:51:25;;;;;;;38.30;26.80;;;;;;;4.03;100.00;102359.00;5035732;28;20049;-58
2022/01/16 09:53:52;;;;;;;39.50;26.00;;;;;;;4.03;100.00;102356.31;5035830;28;20041;-53
2022/01/16 09:56:20;;;;;;;39.03;26.27;;;;;;;4.05;100.00;102362.34;5034157;28;20492;-50
2022/01/16 09:58:47;;;;;;;40.95;28.33;;;;;;;4.07;100.00;102369.44;5035591;28;20041;-52
2022/01/16 10:01:15;;;;;;;42.25;28.85;;;;;;;4.06;100.00;102371.28;5034064;28;20048;-55
2022/01/16 10:03:46;;;;;;;44.17;28.67;;;;;;;4.08;100.00;102371.94;5035570;28;20451;-52
2022/01/16 10:06:16;;;;;;;49.47;32.78;;;;;;;4.14;100.00;102375.75;5035096;28;20135;-55
2022/01/16 10:08:45;;;;;;;42.28;29.63;;;;;;;4.15;100.00;102383.66;5033227;28;20478;-56
2022/01/16 10:11:49;;;;;;;50.75;33.90;;;;;;;4.19;100.00;102392.22;5035425;28;20056;-52
2022/01/16 10:14:43;;;;;;;52.78;35.58;;;;;;;4.17;100.00;102387.00;5006032;28;20059;-53
2022/01/16 10:17:19;;;;;;;45.85;29.65;;;;;;;4.21;100.00;102388.31;5024250;28;20056;-53
2022/01/16 10:19:57;;;;;;;55.00;35.90;;;;;;;4.27;100.00;102392.94;5013194;28;20133;-58
2022/01/16 10:22:35;;;;;;;45.22;29.83;;;;;;;4.32;100.00;102386.16;5013356;28;20044;-50
2022/01/16 10:25:04;;;;;;;57.08;36.90;;;;;;;4.32;100.00;102396.94;5013272;28;20050;-55
2022/01/16 10:27:35;;;;;;;44.40;27.75;;;;;;;4.32;100.00;102400.47;5014711;28;20048;-53
2022/01/16 10:30:07;;;;;;;56.17;36.50;;;;;;;4.34;100.00;102397.59;4996834;28;20057;-50
2022/01/16 10:32:40;;;;;;;45.17;29.63;;;;;;;4.35;100.00;102404.66;5012721;28;20052;-55
2022/01/16 10:35:19;;;;;;;51.63;31.55;;;;;;;4.33;100.00;102406.69;5012763;28;20493;-58
2022/01/16 10:37:50;;;;;;;62.85;38.67;;;;;;;4.29;100.00;102400.03;5013630;28;20054;-56
2022/01/16 10:40:21;;;;;;;68.72;39.33;;;;;;;4.27;100.00;102405.59;4996471;28;20157;-55
2022/01/16 10:42:53;;;;;;;65.18;39.10;;;;;;;4.39;100.00;102412.19;5012534;28;20161;-57
2022/01/16 10:45:26;;;;;;;63.85;39.08;;;;;;;4.40;100.00;102413.88;4995943;28;20448;-56
2022/01/16 10:48:04;;;;;;;53.42;31.33;;;;;;;4.43;100.00;102408.09;5013273;28;20030;-52
2022/01/16 10:50:35;;;;;;;61.15;38.10;;;;;;;4.42;100.00;102410.97;5009148;28;20048;-55
2022/01/16 10:53:15;;;;;;;64.53;38.55;;;;;;;4.40;100.00;102405.78;5014563;28;20045;-57
2022/01/16 10:55:51;;;;;;;59.85;35.30;;;;;;;4.54;100.00;102397.84;5014525;28;20049;-56
2022/01/16 10:58:27;;;;;;;60.83;37.30;;;;;;;4.56;100.00;102407.41;5023353;28;20492;-55
2022/01/16 11:01:03;;;;;;;57.30;35.72;;;;;;;4.50;100.00;102397.41;5033999;28;20424;-54
2022/01/16 11:03:50;;;;;;;56.42;34.00;;;;;;;4.57;100.00;102405.56;5034236;28;20501;-50
2022/01/16 11:06:21;;;;;;;48.65;28.42;;;;;;;4.55;100.00;102404.94;5034028;28;20467;-53
2022/01/16 11:09:01;;;;;;;65.18;38.60;;;;;;;4.50;100.00;102408.19;5033320;28;20034;-55
2022/01/16 11:11:29;;;;;;;62.70;35.80;;;;;;;4.45;100.00;102418.72;5033881;28;20038;-52
2022/01/16 11:14:00;;;;;;;55.58;32.90;;;;;;;4.58;100.00;102418.88;5033080;28;20113;-54
2022/01/16 11:16:28;;;;;;;64.38;37.92;;;;;;;4.54;100.00;102419.44;5033606;28;20404;-55
2022/01/16 11:18:56;;;;;;;62.08;35.88;;;;;;;4.49;100.00;102411.91;5032042;28;20041;-56
2022/01/16 11:21:31;;;;;;;63.08;37.85;;;;;;;4.47;100.00;102416.66;5034419;28;20407;-54
2022/01/16 11:24:12;;;;;;;53.03;32.53;;;;;;;4.47;100.00;102416.66;5032681;28;20484;-56
2022/01/16 11:26:40;;;;;;;61.70;37.55;;;;;;;4.56;100.00;102417.38;5033650;28;20033;-54
2022/01/16 11:29:08;;;;;;;62.20;37.00;;;;;;;4.55;100.00;102418.44;5032575;28;20038;-48
2022/01/16 11:31:35;;;;;;;59.22;35.10;;;;;;;4.57;100.00;102419.06;5033422;28;20484;-55
2022/01/16 11:34:03;;;;;;;62.65;38.95;;;;;;;4.59;100.00;102419.69;5032346;28;20048;-50
2022/01/16 11:36:31;;;;;;;63.13;36.00;;;;;;;4.60;100.00;102416.81;5032319;28;20052;-52
2022/01/16 11:39:06;;;;;;;59.92;35.80;;;;;;;4.59;100.00;102425.94;5032211;28;20069;-54
2022/01/16 11:41:39;;;;;;;42.42;24.98;;;;;;;4.74;100.00;102419.66;5032087;28;20054;-52
2022/01/16 11:44:10;;;;;;;53.95;32.95;;;;;;;4.76;100.00;102421.16;5033476;28;20045;-52
2022/01/16 11:46:42;;;;;;;55.75;35.13;;;;;;;4.70;100.00;102413.81;5031923;28;20551;-50
2022/01/16 11:49:17;;;;;;;53.13;32.85;;;;;;;4.84;100.00;102412.13;5032301;28;20100;-52
2022/01/16 11:51:51;;;;;;;53.20;33.28;;;;;;;4.85;100.00;102408.38;5032214;28;20060;-53
2022/01/16 11:54:33;;;;;;;52.17;33.05;;;;;;;4.76;100.00;102401.41;5032159;28;20045;-55
2022/01/16 11:57:07;;;;;;;56.13;34.13;;;;;;;4.73;100.00;102401.81;5032977;28;20033;-55
2022/01/16 11:59:35;;;;;;;39.38;22.42;;;;;;;4.75;100.00;102405.16;5031970;28;20496;-55
2022/01/16 12:02:08;;;;;;;42.63;25.60;;;;;;;4.96;100.00;102405.19;5032835;28;20065;-56
2022/01/16 12:04:40;;;;;;;62.30;36.63;;;;;;;4.92;100.00;102406.59;5015310;28;20045;-54
2022/01/16 12:07:17;;;;;;;50.15;28.92;;;;;;;4.91;100.00;102404.94;5032837;28;20065;-53
2022/01/16 12:12:12;;;;;;;56.58;34.42;;;;;;;4.88;100.00;102416.09;5032475;28;20049;-54